createdAt,value
2023-04-12T00:01:34.692Z,6.21
2023-04-12T00:04:04.652Z,6.38
2023-04-12T00:06:33.349Z,6.41
2023-04-12T00:09:01.224Z,6.21
2023-04-12T00:11:29.800Z,6.25
2023-04-12T00:13:57.655Z,6.29
2023-04-12T00:16:25.676Z,6.23
2023-04-12T00:18:53.361Z,6.09
2023-04-12T00:21:23.932Z,6.16
2023-04-12T00:23:51.663Z,6.25
2023-04-12T00:26:20.817Z,6.26
2023-04-12T00:28:49.070Z,6.27
2023-04-12T00:31:16.834Z,6.12
2023-04-12T00:33:44.566Z,6.20
2023-04-12T00:36:12.567Z,6.04
2023-04-12T00:38:42.254Z,6.10
2023-04-12T00:41:10.040Z,5.87
2023-04-12T00:43:37.817Z,5.97
2023-04-12T00:46:07.035Z,5.80
2023-04-12T00:48:35.153Z,5.89
2023-04-12T00:51:03.952Z,5.83
2023-04-12T00:53:32.265Z,5.72
2023-04-12T00:56:01.659Z,5.90
2023-04-12T00:58:29.399Z,6.02
2023-04-12T01:00:57.371Z,5.75
2023-04-12T01:03:27.838Z,5.82
2023-04-12T01:06:05.420Z,5.90
2023-04-12T01:08:45.356Z,5.90
2023-04-12T01:11:25.979Z,5.98
2023-04-12T01:14:04.298Z,6.05
2023-04-12T01:16:37.696Z,6.06
2023-04-12T01:19:11.466Z,6.06
2023-04-12T01:21:50.344Z,5.98
2023-04-12T01:24:29.027Z,6.02
2023-04-12T01:27:02.063Z,5.97
2023-04-12T01:29:32.279Z,6.11
2023-04-12T01:32:02.318Z,6.29
2023-04-12T01:34:32.626Z,6.34
2023-04-12T01:37:03.964Z,6.34
2023-04-12T01:39:33.206Z,6.36
2023-04-12T01:42:00.913Z,6.34
2023-04-12T01:44:28.594Z,6.38
2023-04-12T01:46:58.737Z,6.41
2023-04-12T01:49:34.930Z,6.39
2023-04-12T01:52:07.304Z,6.22
2023-04-12T01:54:38.930Z,6.21
2023-04-12T01:57:08.532Z,6.22
2023-04-12T01:59:41.003Z,6.31
2023-04-12T02:02:11.141Z,6.29
2023-04-12T02:04:40.393Z,6.35
2023-04-12T02:07:08.121Z,6.44
2023-04-12T02:09:38.867Z,6.42
2023-04-12T02:12:07.373Z,6.31
2023-04-12T02:14:35.793Z,6.27
2023-04-12T02:17:04.715Z,6.21
2023-04-12T02:19:33.722Z,6.37
2023-04-12T02:22:02.217Z,6.43
2023-04-12T02:24:30.006Z,6.37
2023-04-12T02:26:59.580Z,6.31
2023-04-12T02:29:27.370Z,6.25
2023-04-12T02:31:55.108Z,6.44
2023-04-12T02:34:23.094Z,6.41
2023-04-12T02:36:52.418Z,6.26
2023-04-12T02:39:21.990Z,6.31
2023-04-12T02:41:49.888Z,6.38
2023-04-12T02:44:17.701Z,6.45
2023-04-12T02:46:45.426Z,6.45
2023-04-12T02:49:13.088Z,6.46
2023-04-12T02:51:41.692Z,6.53
2023-04-12T02:54:10.675Z,6.41
2023-04-12T02:56:38.326Z,6.43
2023-04-12T02:59:06.821Z,6.55
2023-04-12T03:01:34.762Z,6.47
2023-04-12T03:04:02.858Z,6.45
2023-04-12T03:06:32.065Z,6.15
2023-04-12T03:09:00.239Z,6.21
2023-04-12T03:11:29.243Z,6.02
2023-04-12T03:13:57.130Z,6.13
2023-04-12T03:16:29.920Z,6.06
2023-04-12T03:18:57.847Z,6.20
2023-04-12T03:21:25.945Z,6.22
2023-04-12T03:23:53.581Z,6.39
2023-04-12T03:26:21.289Z,6.25
2023-04-12T03:28:50.423Z,6.27
2023-04-12T03:31:20.944Z,6.36
2023-04-12T03:33:48.915Z,6.37
2023-04-12T03:36:16.621Z,6.42
2023-04-12T03:38:44.288Z,6.48
2023-04-12T03:41:11.902Z,6.32
2023-04-12T03:43:40.514Z,6.28
2023-04-12T03:46:09.842Z,6.22
2023-04-12T03:48:37.757Z,6.26
2023-04-12T03:51:07.832Z,6.40
2023-04-12T03:53:35.959Z,6.39
2023-04-12T03:56:03.624Z,6.35
2023-04-12T03:58:31.300Z,6.17
2023-04-12T04:01:01.287Z,6.29
2023-04-12T04:03:30.498Z,6.14
2023-04-12T04:05:58.437Z,6.02
2023-04-12T04:08:26.238Z,6.15
2023-04-12T04:10:54.017Z,6.30
2023-04-12T04:13:22.016Z,6.33
2023-04-12T04:15:53.012Z,6.39
2023-04-12T04:18:20.806Z,6.44
2023-04-12T04:20:49.960Z,6.27
2023-04-12T04:23:18.580Z,6.18
2023-04-12T04:25:46.370Z,6.28
2023-04-12T04:28:15.995Z,6.34
2023-04-12T04:30:46.109Z,6.32
2023-04-12T04:33:15.866Z,6.40
2023-04-12T04:35:43.859Z,6.43
2023-04-12T04:38:13.232Z,6.51
2023-04-12T04:40:40.990Z,6.65
2023-04-12T04:43:09.771Z,6.52
2023-04-12T04:45:37.491Z,6.64
2023-04-12T04:48:05.716Z,6.52
2023-04-12T04:50:33.763Z,6.53
2023-04-12T04:53:01.590Z,6.53
2023-04-12T04:55:31.080Z,6.53
2023-04-12T04:57:58.930Z,6.63
2023-04-12T05:00:26.730Z,6.68
2023-04-12T05:02:54.590Z,6.74
2023-04-12T05:05:23.374Z,6.69
2023-04-12T05:07:51.272Z,6.88
2023-04-12T05:10:19.151Z,6.74
2023-04-12T05:12:48.354Z,6.77
2023-04-12T05:15:16.302Z,6.68
2023-04-12T05:17:44.361Z,6.75
2023-04-12T05:20:12.599Z,6.90
2023-04-12T05:22:40.747Z,6.92
2023-04-12T05:25:09.623Z,6.92
2023-04-12T05:27:37.742Z,6.94
2023-04-12T05:30:09.054Z,6.87
2023-04-12T05:32:37.083Z,6.99
2023-04-12T05:35:05.356Z,6.93
2023-04-12T05:37:33.384Z,6.93
2023-04-12T05:40:01.320Z,7.09
2023-04-12T05:42:29.544Z,7.03
2023-04-12T05:44:57.460Z,6.87
2023-04-12T05:47:27.037Z,6.81
2023-04-12T05:49:55.414Z,6.95
2023-04-12T05:52:23.412Z,7.04
2023-04-12T05:54:51.893Z,6.97
2023-04-12T05:57:19.812Z,7.03
2023-04-12T05:59:47.760Z,7.02
2023-04-12T06:02:15.741Z,7.20
2023-04-12T06:04:50.746Z,7.13
2023-04-12T06:07:20.100Z,7.25
2023-04-12T06:09:49.853Z,7.25
2023-04-12T06:12:17.758Z,7.21
2023-04-12T06:14:46.867Z,7.05
2023-04-12T06:17:14.615Z,6.97
2023-04-12T06:19:42.483Z,6.91
2023-04-12T06:22:11.679Z,7.01
2023-04-12T06:24:39.454Z,6.97
2023-04-12T06:27:07.270Z,7.18
2023-04-12T06:29:35.056Z,7.18
2023-04-12T06:32:02.759Z,6.92
2023-04-12T06:34:31.373Z,7.03
2023-04-12T06:37:00.623Z,6.91
2023-04-12T06:39:29.600Z,6.88
2023-04-12T06:41:59.542Z,6.95
2023-04-12T06:44:27.991Z,7.11
2023-04-12T06:46:56.044Z,7.11
2023-04-12T06:49:23.844Z,6.97
2023-04-12T06:51:51.713Z,6.88
2023-04-12T06:54:19.567Z,6.98
2023-04-12T06:56:48.787Z,7.11
2023-04-12T06:59:16.689Z,7.18
2023-04-12T07:01:44.519Z,7.01
2023-04-12T07:04:13.014Z,7.05
2023-04-12T07:06:40.925Z,6.99
2023-04-12T07:09:09.035Z,7.06
2023-04-12T07:11:37.042Z,6.91
2023-04-12T07:14:06.186Z,6.99
2023-04-12T07:16:34.210Z,6.90
2023-04-12T07:19:02.057Z,6.85
2023-04-12T07:21:29.908Z,6.82
2023-04-12T07:23:57.690Z,6.84
2023-04-12T07:26:26.038Z,6.92
2023-04-12T07:28:54.872Z,6.91
2023-04-12T07:31:24.281Z,6.98
2023-04-12T07:33:52.071Z,6.99
2023-04-12T07:36:21.963Z,7.12
2023-04-12T07:38:54.883Z,7.05
2023-04-12T07:41:23.069Z,7.15
2023-04-12T07:43:51.261Z,7.05
2023-04-12T07:46:18.940Z,7.10
2023-04-12T07:48:48.050Z,7.33
2023-04-12T07:51:15.673Z,7.33
2023-04-12T07:53:48.138Z,7.30
2023-04-12T07:56:16.335Z,7.25
2023-04-12T07:58:44.179Z,7.38
2023-04-12T08:01:13.182Z,7.42
2023-04-12T08:03:40.952Z,7.49
2023-04-12T08:06:13.377Z,7.65
2023-04-12T08:08:41.283Z,7.38
2023-04-12T08:11:09.086Z,7.54
2023-04-12T08:13:36.836Z,7.74
2023-04-12T08:16:04.902Z,7.95
2023-04-12T08:18:32.543Z,7.65
2023-04-12T08:21:00.222Z,7.73
2023-04-12T08:23:29.358Z,8.10
2023-04-12T08:26:03.270Z,7.99
2023-04-12T08:28:31.086Z,8.15
2023-04-12T08:30:59.265Z,8.26
2023-04-12T08:33:27.680Z,8.17
2023-04-12T08:35:56.057Z,7.94
2023-04-12T08:38:37.247Z,8.01
2023-04-12T08:41:13.524Z,8.22
2023-04-12T08:43:44.376Z,7.95
2023-04-12T08:46:13.581Z,8.10
2023-04-12T08:48:43.262Z,8.06
2023-04-12T08:51:13.981Z,8.02
2023-04-12T08:53:41.682Z,8.03
2023-04-12T08:56:12.821Z,8.12
2023-04-12T08:58:41.610Z,8.04
2023-04-12T09:01:13.977Z,8.19
2023-04-12T09:03:41.851Z,8.20
2023-04-12T09:06:10.658Z,8.15
2023-04-12T09:08:38.396Z,8.33
2023-04-12T09:11:23.103Z,8.20
2023-04-12T09:13:50.855Z,8.18
2023-04-12T09:16:20.270Z,8.03
2023-04-12T09:18:51.969Z,8.17
2023-04-12T09:21:20.052Z,8.15
2023-04-12T09:24:03.538Z,8.18
2023-04-12T09:26:32.600Z,7.96
2023-04-12T09:29:00.956Z,8.08
2023-04-12T09:31:28.691Z,8.08
2023-04-12T09:34:07.817Z,8.11
2023-04-12T09:36:39.528Z,8.15
2023-04-12T09:39:08.851Z,7.95
2023-04-12T09:41:37.839Z,7.82
2023-04-12T09:44:05.732Z,7.90
2023-04-12T09:46:34.487Z,7.76
2023-04-12T09:49:03.379Z,7.92
2023-04-12T09:51:32.734Z,7.80
2023-04-12T09:54:01.978Z,7.76
2023-04-12T09:56:32.203Z,7.95
2023-04-12T09:59:05.066Z,7.89
2023-04-12T10:01:36.660Z,7.97
2023-04-12T10:04:06.177Z,7.95
2023-04-12T10:06:34.366Z,7.95
2023-04-12T10:09:04.671Z,8.06
2023-04-12T10:11:33.852Z,8.01
2023-04-12T10:14:04.211Z,7.94
2023-04-12T10:16:34.400Z,7.98
2023-04-12T10:19:03.803Z,8.17
2023-04-12T10:21:31.829Z,8.27
2023-04-12T10:23:59.888Z,8.63
2023-04-12T10:26:27.922Z,8.57
2023-04-12T10:29:30.824Z,8.76
2023-04-12T10:32:00.079Z,8.78
2023-04-12T10:34:31.870Z,8.91
2023-04-12T10:37:00.535Z,8.53
2023-04-12T10:39:42.271Z,8.31
2023-04-12T10:42:21.461Z,8.38
2023-04-12T10:44:51.975Z,8.51
2023-04-12T10:47:52.966Z,8.75
2023-04-12T10:50:24.990Z,8.91
2023-04-12T10:53:25.746Z,8.79
2023-04-12T10:55:53.666Z,9.20
2023-04-12T10:58:56.304Z,9.41
2023-04-12T11:01:25.936Z,9.65
2023-04-12T11:04:14.430Z,9.46
2023-04-12T11:06:52.247Z,9.37
2023-04-12T11:09:22.430Z,9.27
2023-04-12T11:11:50.441Z,9.31
2023-04-12T11:14:18.943Z,9.21
2023-04-12T11:17:26.441Z,9.11
2023-04-12T11:20:00.460Z,9.15
2023-04-12T11:22:32.873Z,9.01
2023-04-12T11:25:03.014Z,9.03
2023-04-12T11:27:31.848Z,8.99
2023-04-12T11:30:00.841Z,9.04
2023-04-12T11:32:29.703Z,8.95
2023-04-12T11:34:59.389Z,9.06
2023-04-12T11:37:28.227Z,9.06
2023-04-12T11:39:59.099Z,9.12
2023-04-12T11:42:28.842Z,9.06
2023-04-12T11:45:01.093Z,9.13
2023-04-12T11:47:31.214Z,9.24
2023-04-12T11:50:00.439Z,9.37
2023-04-12T11:52:33.306Z,9.50
2023-04-12T11:55:04.982Z,9.46
2023-04-12T11:57:32.843Z,9.45
2023-04-12T12:00:00.805Z,9.27
2023-04-12T12:02:32.963Z,9.40
2023-04-12T12:05:04.558Z,9.46
2023-04-12T12:07:33.025Z,9.45
2023-04-12T12:10:02.049Z,9.36
2023-04-12T12:12:29.752Z,9.36
2023-04-12T12:15:00.860Z,9.44
2023-04-12T12:17:28.837Z,9.48
2023-04-12T12:19:58.499Z,9.62
2023-04-12T12:22:27.581Z,9.67
2023-04-12T12:24:58.157Z,9.72
2023-04-12T12:27:34.286Z,9.56
2023-04-12T12:30:04.400Z,9.70
2023-04-12T12:32:34.908Z,9.67
2023-04-12T12:35:02.911Z,9.83
2023-04-12T12:37:31.991Z,9.85
2023-04-12T12:40:11.442Z,9.96
2023-04-12T12:42:46.792Z,10.11
2023-04-12T12:45:15.345Z,10.09
2023-04-12T12:47:47.645Z,10.08
2023-04-12T12:50:17.532Z,10.01
2023-04-12T12:52:47.416Z,9.95
2023-04-12T12:55:16.059Z,9.90
2023-04-12T12:57:52.003Z,10.09
2023-04-12T13:00:31.517Z,10.11
2023-04-12T13:02:59.850Z,9.93
2023-04-12T13:05:27.882Z,10.08
2023-04-12T13:07:56.876Z,10.08
2023-04-12T13:10:26.536Z,10.11
2023-04-12T13:12:54.347Z,10.11
2023-04-12T13:15:23.847Z,10.20
2023-04-12T13:17:53.437Z,10.28
2023-04-12T13:20:21.495Z,10.55
2023-04-12T13:22:49.343Z,10.40
2023-04-12T13:25:19.769Z,10.60
2023-04-12T13:27:48.828Z,10.56
2023-04-12T13:30:16.700Z,10.55
2023-04-12T13:32:44.667Z,10.26
2023-04-12T13:35:12.827Z,10.41
2023-04-12T13:37:40.841Z,10.35
2023-04-12T13:40:09.663Z,10.48
2023-04-12T13:42:38.736Z,10.59
2023-04-12T13:45:07.594Z,10.90
2023-04-12T13:47:35.412Z,11.44
2023-04-12T13:50:03.093Z,11.62
2023-04-12T13:52:30.952Z,11.80
2023-04-12T13:54:59.605Z,11.84
2023-04-12T13:57:27.387Z,11.67
2023-04-12T13:59:56.594Z,11.55
2023-04-12T14:02:24.396Z,11.33
2023-04-12T14:04:53.368Z,11.35
2023-04-12T14:07:21.639Z,11.37
2023-04-12T14:09:49.454Z,11.26
2023-04-12T14:12:17.251Z,11.25
2023-04-12T14:14:44.985Z,11.33
2023-04-12T14:17:14.245Z,11.38
2023-04-12T14:19:43.027Z,11.46
2023-04-12T14:22:10.902Z,11.35
2023-04-12T14:24:40.065Z,11.48
2023-04-12T14:27:07.828Z,11.65
2023-04-12T14:29:35.435Z,11.72
2023-04-12T14:32:03.065Z,11.72
2023-04-12T14:34:32.039Z,11.71
2023-04-12T14:37:00.352Z,11.89
2023-04-12T14:39:28.138Z,11.82
2023-04-12T14:41:56.900Z,11.87
2023-04-12T14:44:26.280Z,11.92
2023-04-12T14:46:54.260Z,12.11
2023-04-12T14:49:22.069Z,12.25
2023-04-12T14:51:51.136Z,12.29
2023-04-12T14:54:18.721Z,12.07
2023-04-12T14:56:52.285Z,12.28
2023-04-12T14:59:22.412Z,12.47
2023-04-12T15:01:51.918Z,12.76
2023-04-12T15:04:20.127Z,12.97
2023-04-12T15:06:47.887Z,12.60
2023-04-12T15:09:17.610Z,12.48
2023-04-12T15:11:47.090Z,12.61
2023-04-12T15:14:17.982Z,12.50
2023-04-12T15:16:46.810Z,12.48
2023-04-12T15:19:20.437Z,12.46
2023-04-12T15:21:51.056Z,12.49
2023-04-12T15:24:20.870Z,12.84
2023-04-12T15:26:49.053Z,12.98
2023-04-12T15:29:17.452Z,13.00
2023-04-12T15:31:45.597Z,12.92
2023-04-12T15:34:14.011Z,12.86
2023-04-12T15:36:43.145Z,12.83
2023-04-12T15:39:11.202Z,12.90
2023-04-12T15:41:41.755Z,12.99
2023-04-12T15:44:11.853Z,13.06
2023-04-12T15:46:40.403Z,13.03
2023-04-12T15:49:08.932Z,13.12
2023-04-12T15:51:36.685Z,13.22
2023-04-12T15:54:06.520Z,13.13
2023-04-12T15:56:35.150Z,13.33
2023-04-12T15:59:04.205Z,13.22
2023-04-12T16:01:31.867Z,13.26
2023-04-12T16:03:59.657Z,13.19
2023-04-12T16:06:28.300Z,13.14
2023-04-12T16:08:57.450Z,13.22
2023-04-12T16:11:25.437Z,13.27
2023-04-12T16:13:54.093Z,13.29
2023-04-12T16:16:24.449Z,13.27
2023-04-12T16:18:52.677Z,13.20
2023-04-12T16:21:23.198Z,13.13
2023-04-12T16:23:52.053Z,13.03
2023-04-12T16:26:21.727Z,12.98
2023-04-12T16:28:50.524Z,12.82
2023-04-12T16:31:19.786Z,12.76
2023-04-12T16:33:49.077Z,12.76
2023-04-12T16:36:16.989Z,12.76
2023-04-12T16:38:45.475Z,12.69
2023-04-12T16:41:13.306Z,12.65
2023-04-12T16:43:43.270Z,12.57
2023-04-12T16:46:12.566Z,12.58
2023-04-12T16:48:41.183Z,12.57
2023-04-12T16:51:10.301Z,12.46
2023-04-12T16:53:38.098Z,12.32
2023-04-12T16:56:06.221Z,12.30
2023-04-12T16:58:34.010Z,12.14
2023-04-12T17:01:01.973Z,11.80
2023-04-12T17:03:30.220Z,11.68
2023-04-12T17:05:58.256Z,11.43
2023-04-12T17:08:27.320Z,11.11
2023-04-12T17:10:55.340Z,10.98
2023-04-12T17:13:23.351Z,10.96
2023-04-12T17:15:51.046Z,10.80
2023-04-12T17:18:18.710Z,10.72
2023-04-12T17:20:47.240Z,10.72
2023-04-12T17:23:16.670Z,10.71
2023-04-12T17:25:47.476Z,10.74
2023-04-12T17:28:15.254Z,10.86
2023-04-12T17:30:45.401Z,10.90
2023-04-12T17:33:13.078Z,10.99
2023-04-12T17:35:41.538Z,10.94
2023-04-12T17:38:09.304Z,10.99
2023-04-12T17:40:38.353Z,10.94
2023-04-12T17:43:07.410Z,10.94
2023-04-12T17:45:35.765Z,10.90
2023-04-12T17:48:03.560Z,10.90
2023-04-12T17:50:32.863Z,10.94
2023-04-12T17:53:01.785Z,10.89
2023-04-12T17:55:29.648Z,10.85
2023-04-12T17:57:58.077Z,10.94
2023-04-12T18:00:29.495Z,10.94
2023-04-12T18:02:59.966Z,10.89
2023-04-12T18:05:27.688Z,10.86
2023-04-12T18:07:56.996Z,10.83
2023-04-12T18:10:26.772Z,10.75
2023-04-12T18:12:54.566Z,10.70
2023-04-12T18:15:22.538Z,10.65
2023-04-12T18:17:51.654Z,10.64
2023-04-12T18:20:19.558Z,10.58
2023-04-12T18:22:47.255Z,10.52
2023-04-12T18:25:15.009Z,10.65
2023-04-12T18:27:43.046Z,10.60
2023-04-12T18:30:11.400Z,10.54
2023-04-12T18:32:39.189Z,10.48
2023-04-12T18:35:09.791Z,10.45
2023-04-12T18:37:38.132Z,10.39
2023-04-12T18:40:08.291Z,10.32
2023-04-12T18:42:36.300Z,10.33
2023-04-12T18:45:04.895Z,10.30
2023-04-12T18:47:32.736Z,10.29
2023-04-12T18:50:00.535Z,10.28
2023-04-12T18:52:29.805Z,10.28
2023-04-12T18:54:59.298Z,10.22
2023-04-12T18:57:27.094Z,10.19
2023-04-12T18:59:54.899Z,10.12
2023-04-12T19:02:22.773Z,10.13
2023-04-12T19:04:50.654Z,10.03
2023-04-12T19:07:18.843Z,10.06
2023-04-12T19:09:52.077Z,10.05
2023-04-12T19:12:20.601Z,9.99
2023-04-12T19:14:48.330Z,10.01
2023-04-12T19:17:22.763Z,10.00
2023-04-12T19:19:52.878Z,9.99
2023-04-12T19:22:20.830Z,9.98
2023-04-12T19:24:50.869Z,10.05
2023-04-12T19:27:18.614Z,10.06
2023-04-12T19:29:46.306Z,9.94
2023-04-12T19:32:14.048Z,9.94
2023-04-12T19:34:42.338Z,9.84
2023-04-12T19:37:10.421Z,9.90
2023-04-12T19:39:40.333Z,9.87
2023-04-12T19:42:09.531Z,9.78
2023-04-12T19:44:39.830Z,9.82
2023-04-12T19:47:08.198Z,9.82
2023-04-12T19:49:36.076Z,9.76
2023-04-12T19:52:05.336Z,9.71
2023-04-12T19:54:33.534Z,9.72
2023-04-12T19:57:01.367Z,9.77
2023-04-12T19:59:34.303Z,9.81
2023-04-12T20:02:03.717Z,9.76
2023-04-12T20:04:31.713Z,9.94
2023-04-12T20:07:00.377Z,9.88
2023-04-12T20:09:28.192Z,9.88
2023-04-12T20:11:56.511Z,9.75
2023-04-12T20:14:26.723Z,9.74
2023-04-12T20:16:56.911Z,9.72
2023-04-12T20:19:24.717Z,9.65
2023-04-12T20:21:53.337Z,9.64
2023-04-12T20:24:27.838Z,9.63
2023-04-12T20:26:57.012Z,9.62
2023-04-12T20:29:24.801Z,9.62
2023-04-12T20:31:53.621Z,9.60
2023-04-12T20:34:25.555Z,9.70
2023-04-12T20:36:54.924Z,9.71
2023-04-12T20:39:30.774Z,9.66
2023-04-12T20:42:01.149Z,9.58
2023-04-12T20:44:28.954Z,9.57
2023-04-12T20:46:56.870Z,9.53
2023-04-12T20:49:27.918Z,9.45
2023-04-12T20:51:56.785Z,9.43
2023-04-12T20:54:25.305Z,9.37
2023-04-12T20:56:53.000Z,9.26
2023-04-12T20:59:22.001Z,9.19
2023-04-12T21:01:49.807Z,9.23
2023-04-12T21:04:20.068Z,9.39
2023-04-12T21:06:55.379Z,9.38
2023-04-12T21:09:24.076Z,9.43
2023-04-12T21:11:52.256Z,9.42
2023-04-12T21:14:20.573Z,9.33
2023-04-12T21:16:49.574Z,9.31
2023-04-12T21:19:18.291Z,9.30
2023-04-12T21:21:46.139Z,9.33
2023-04-12T21:24:15.315Z,9.39
2023-04-12T21:26:43.642Z,9.37
2023-04-12T21:29:11.597Z,9.37
2023-04-12T21:31:41.624Z,9.36
2023-04-12T21:34:10.156Z,9.36
2023-04-12T21:36:38.698Z,9.31
2023-04-12T21:39:06.473Z,9.36
2023-04-12T21:41:37.221Z,9.38
2023-04-12T21:44:04.980Z,9.29
2023-04-12T21:46:32.596Z,9.23
2023-04-12T21:49:00.566Z,9.20
2023-04-12T21:51:28.444Z,9.18
2023-04-12T21:53:56.111Z,9.27
2023-04-12T21:56:23.728Z,9.25
2023-04-12T21:58:52.802Z,9.20
2023-04-12T22:01:20.484Z,9.22
2023-04-12T22:03:48.383Z,9.20
2023-04-12T22:06:16.818Z,9.14
2023-04-12T22:08:45.724Z,9.13
2023-04-12T22:11:13.529Z,9.15
2023-04-12T22:13:41.736Z,9.23
2023-04-12T22:16:13.144Z,9.11
2023-04-12T22:18:41.182Z,9.08
2023-04-12T22:21:11.102Z,9.06
2023-04-12T22:23:40.716Z,9.00
2023-04-12T22:26:09.162Z,9.01
2023-04-12T22:28:37.840Z,9.00
2023-04-12T22:31:05.967Z,9.00
2023-04-12T22:33:36.771Z,8.95
2023-04-12T22:36:06.071Z,9.03
2023-04-12T22:38:35.585Z,8.92
2023-04-12T22:41:06.425Z,8.98
2023-04-12T22:43:42.097Z,9.00
2023-04-12T22:46:16.258Z,8.95
2023-04-12T22:48:47.671Z,8.90
2023-04-12T22:51:16.038Z,8.82
2023-04-12T22:53:43.972Z,8.91
2023-04-12T22:56:11.847Z,8.91
2023-04-12T22:58:40.392Z,8.91
2023-04-12T23:01:11.045Z,8.93
2023-04-12T23:03:41.562Z,8.93
2023-04-12T23:06:12.683Z,8.87
2023-04-12T23:08:40.591Z,8.91
2023-04-12T23:11:08.414Z,8.91
2023-04-12T23:13:36.101Z,8.91
2023-04-12T23:16:04.966Z,8.89
2023-04-12T23:18:35.091Z,8.79
2023-04-12T23:21:02.805Z,8.83
2023-04-12T23:23:31.862Z,8.87
2023-04-12T23:25:59.570Z,8.84
2023-04-12T23:28:28.424Z,8.76
2023-04-12T23:30:57.655Z,8.80
2023-04-12T23:33:25.551Z,8.77
2023-04-12T23:35:53.461Z,8.79
2023-04-12T23:38:31.995Z,8.76
2023-04-12T23:41:02.499Z,8.75
2023-04-12T23:43:31.090Z,8.76
2023-04-12T23:45:58.844Z,8.77
2023-04-12T23:48:27.135Z,8.76
2023-04-12T23:50:54.943Z,8.78
2023-04-12T23:53:22.842Z,8.77
2023-04-12T23:55:53.285Z,8.72
2023-04-12T23:58:22.714Z,8.74
